sensor_id;sensor_type;location;lat;lon;timestamp;temperature;humidity
35607;DHT22;21729;58.392;15.656;2024-01-30T00:01:18;4.20;99.90
35607;DHT22;21729;58.392;15.656;2024-01-30T00:03:45;4.30;99.90
35607;DHT22;21729;58.392;15.656;2024-01-30T00:06:12;4.30;99.90
35607;DHT22;21729;58.392;15.656;2024-01-30T00:08:39;4.20;99.90
35607;DHT22;21729;58.392;15.656;2024-01-30T00:11:09;4.20;99.90
35607;DHT22;21729;58.392;15.656;2024-01-30T00:13:36;4.30;99.90
35607;DHT22;21729;58.392;15.656;2024-01-30T00:16:03;4.30;99.90
35607;DHT22;21729;58.392;15.656;2024-01-30T00:18:30;4.30;99.90
35607;DHT22;21729;58.392;15.656;2024-01-30T00:20:57;4.30;99.90
35607;DHT22;21729;58.392;15.656;2024-01-30T00:23:24;4.30;99.90
35607;DHT22;21729;58.392;15.656;2024-01-30T00:25:51;4.20;99.90
35607;DHT22;21729;58.392;15.656;2024-01-30T00:28:20;4.10;99.90
35607;DHT22;21729;58.392;15.656;2024-01-30T00:30:47;4.10;99.90
35607;DHT22;21729;58.392;15.656;2024-01-30T00:33:14;4.20;99.90
35607;DHT22;21729;58.392;15.656;2024-01-30T00:35:42;4.20;99.90
35607;DHT22;21729;58.392;15.656;2024-01-30T00:38:09;4.20;99.90
35607;DHT22;21729;58.392;15.656;2024-01-30T00:40:36;4.20;99.90
35607;DHT22;21729;58.392;15.656;2024-01-30T00:43:03;4.20;99.90
35607;DHT22;21729;58.392;15.656;2024-01-30T00:45:31;4.20;99.90
35607;DHT22;21729;58.392;15.656;2024-01-30T00:47:58;4.20;99.90
35607;DHT22;21729;58.392;15.656;2024-01-30T00:50:25;4.20;99.90
35607;DHT22;21729;58.392;15.656;2024-01-30T00:52:52;4.10;99.90
35607;DHT22;21729;58.392;15.656;2024-01-30T00:55:19;4.10;99.90
35607;DHT22;21729;58.392;15.656;2024-01-30T00:57:46;4.10;99.90
35607;DHT22;21729;58.392;15.656;2024-01-30T01:00:14;4.10;99.90
35607;DHT22;21729;58.392;15.656;2024-01-30T01:02:44;4.00;99.90
35607;DHT22;21729;58.392;15.656;2024-01-30T01:05:11;4.10;1.00
35607;DHT22;21729;58.392;15.656;2024-01-30T01:07:38;4.10;1.00
35607;DHT22;21729;58.392;15.656;2024-01-30T01:10:06;4.10;1.00
35607;DHT22;21729;58.392;15.656;2024-01-30T01:12:34;4.10;1.00
35607;DHT22;21729;58.392;15.656;2024-01-30T01:15:01;4.10;1.00
35607;DHT22;21729;58.392;15.656;2024-01-30T01:17:28;4.10;1.00
35607;DHT22;21729;58.392;15.656;2024-01-30T01:19:57;4.00;1.00
35607;DHT22;21729;58.392;15.656;2024-01-30T01:22:24;4.10;1.00
35607;DHT22;21729;58.392;15.656;2024-01-30T01:24:51;4.00;1.00
35607;DHT22;21729;58.392;15.656;2024-01-30T01:27:18;4.10;1.00
35607;DHT22;21729;58.392;15.656;2024-01-30T01:29:45;4.00;1.00
35607;DHT22;21729;58.392;15.656;2024-01-30T01:32:12;3.90;1.00
35607;DHT22;21729;58.392;15.656;2024-01-30T01:34:39;3.90;1.00
35607;DHT22;21729;58.392;15.656;2024-01-30T01:37:08;4.00;1.00
35607;DHT22;21729;58.392;15.656;2024-01-30T01:39:35;4.00;1.00
35607;DHT22;21729;58.392;15.656;2024-01-30T01:42:02;3.90;1.00
35607;DHT22;21729;58.392;15.656;2024-01-30T01:44:30;4.00;1.00
35607;DHT22;21729;58.392;15.656;2024-01-30T01:46:57;4.00;1.00
35607;DHT22;21729;58.392;15.656;2024-01-30T01:49:25;4.00;1.00
35607;DHT22;21729;58.392;15.656;2024-01-30T01:51:55;4.00;1.00
35607;DHT22;21729;58.392;15.656;2024-01-30T01:54:24;4.00;1.00
35607;DHT22;21729;58.392;15.656;2024-01-30T01:56:53;4.00;1.00
35607;DHT22;21729;58.392;15.656;2024-01-30T01:59:20;4.00;1.00
35607;DHT22;21729;58.392;15.656;2024-01-30T02:01:48;4.00;1.00
35607;DHT22;21729;58.392;15.656;2024-01-30T02:04:16;3.90;1.00
35607;DHT22;21729;58.392;15.656;2024-01-30T02:06:43;3.90;1.00
35607;DHT22;21729;58.392;15.656;2024-01-30T02:09:10;3.90;1.00
35607;DHT22;21729;58.392;15.656;2024-01-30T02:11:39;3.90;1.00
35607;DHT22;21729;58.392;15.656;2024-01-30T02:14:06;3.90;1.00
35607;DHT22;21729;58.392;15.656;2024-01-30T02:16:33;3.90;1.00
35607;DHT22;21729;58.392;15.656;2024-01-30T02:19:00;4.00;1.00
35607;DHT22;21729;58.392;15.656;2024-01-30T02:21:29;4.00;1.00
35607;DHT22;21729;58.392;15.656;2024-01-30T02:23:57;3.90;1.00
35607;DHT22;21729;58.392;15.656;2024-01-30T02:26:25;3.90;1.00
35607;DHT22;21729;58.392;15.656;2024-01-30T02:28:52;3.90;1.00
35607;DHT22;21729;58.392;15.656;2024-01-30T02:31:19;3.80;1.00
35607;DHT22;21729;58.392;15.656;2024-01-30T02:33:46;3.90;1.00
35607;DHT22;21729;58.392;15.656;2024-01-30T02:36:13;3.90;1.00
35607;DHT22;21729;58.392;15.656;2024-01-30T02:38:42;3.90;1.00
35607;DHT22;21729;58.392;15.656;2024-01-30T02:41:09;3.80;1.00
35607;DHT22;21729;58.392;15.656;2024-01-30T02:43:36;3.90;1.00
35607;DHT22;21729;58.392;15.656;2024-01-30T02:46:04;3.90;1.00
35607;DHT22;21729;58.392;15.656;2024-01-30T02:48:31;3.90;1.00
35607;DHT22;21729;58.392;15.656;2024-01-30T02:50:58;3.80;1.00
35607;DHT22;21729;58.392;15.656;2024-01-30T02:53:25;3.80;1.00
35607;DHT22;21729;58.392;15.656;2024-01-30T02:55:53;3.80;1.00
35607;DHT22;21729;58.392;15.656;2024-01-30T02:58:20;3.80;1.00
35607;DHT22;21729;58.392;15.656;2024-01-30T03:00:47;3.80;1.00
35607;DHT22;21729;58.392;15.656;2024-01-30T03:03:14;3.80;1.00
35607;DHT22;21729;58.392;15.656;2024-01-30T03:05:41;3.80;1.00
35607;DHT22;21729;58.392;15.656;2024-01-30T03:08:08;3.80;1.00
35607;DHT22;21729;58.392;15.656;2024-01-30T03:10:35;3.90;1.00
35607;DHT22;21729;58.392;15.656;2024-01-30T03:13:04;3.90;1.00
35607;DHT22;21729;58.392;15.656;2024-01-30T03:15:31;3.80;1.00
35607;DHT22;21729;58.392;15.656;2024-01-30T03:17:58;3.80;1.00
35607;DHT22;21729;58.392;15.656;2024-01-30T03:20:25;3.80;1.00
35607;DHT22;21729;58.392;15.656;2024-01-30T03:22:54;3.80;1.00
35607;DHT22;21729;58.392;15.656;2024-01-30T03:25:21;3.80;1.00
35607;DHT22;21729;58.392;15.656;2024-01-30T03:27:49;3.90;1.00
35607;DHT22;21729;58.392;15.656;2024-01-30T03:30:17;3.80;1.00
35607;DHT22;21729;58.392;15.656;2024-01-30T03:32:44;3.70;1.00
35607;DHT22;21729;58.392;15.656;2024-01-30T03:35:11;3.80;1.00
35607;DHT22;21729;58.392;15.656;2024-01-30T03:37:39;3.80;1.00
35607;DHT22;21729;58.392;15.656;2024-01-30T03:40:06;3.80;1.00
35607;DHT22;21729;58.392;15.656;2024-01-30T03:42:34;3.90;1.00
35607;DHT22;21729;58.392;15.656;2024-01-30T03:45:01;3.80;1.00
35607;DHT22;21729;58.392;15.656;2024-01-30T03:47:29;3.80;1.00
35607;DHT22;21729;58.392;15.656;2024-01-30T03:49:56;3.80;1.00
35607;DHT22;21729;58.392;15.656;2024-01-30T03:52:23;3.80;1.00
35607;DHT22;21729;58.392;15.656;2024-01-30T03:54:50;3.80;1.00
35607;DHT22;21729;58.392;15.656;2024-01-30T03:57:17;3.80;1.00
35607;DHT22;21729;58.392;15.656;2024-01-30T03:59:44;3.80;1.00
35607;DHT22;21729;58.392;15.656;2024-01-30T04:02:11;3.80;1.00
35607;DHT22;21729;58.392;15.656;2024-01-30T04:04:40;3.80;1.00
35607;DHT22;21729;58.392;15.656;2024-01-30T04:07:07;3.80;1.00
35607;DHT22;21729;58.392;15.656;2024-01-30T04:09:34;3.80;1.00
35607;DHT22;21729;58.392;15.656;2024-01-30T04:12:01;3.70;1.00
35607;DHT22;21729;58.392;15.656;2024-01-30T04:14:28;3.70;1.00
35607;DHT22;21729;58.392;15.656;2024-01-30T04:16:55;3.70;1.00
35607;DHT22;21729;58.392;15.656;2024-01-30T04:19:22;3.70;1.00
35607;DHT22;21729;58.392;15.656;2024-01-30T04:21:51;3.60;1.00
35607;DHT22;21729;58.392;15.656;2024-01-30T04:24:18;3.70;1.00
35607;DHT22;21729;58.392;15.656;2024-01-30T04:26:45;3.70;1.00
35607;DHT22;21729;58.392;15.656;2024-01-30T04:29:12;3.70;1.00
35607;DHT22;21729;58.392;15.656;2024-01-30T04:31:39;3.70;1.00
35607;DHT22;21729;58.392;15.656;2024-01-30T04:34:06;3.70;1.00
35607;DHT22;21729;58.392;15.656;2024-01-30T04:36:33;3.60;1.00
35607;DHT22;21729;58.392;15.656;2024-01-30T04:39:01;3.70;1.00
35607;DHT22;21729;58.392;15.656;2024-01-30T04:41:29;3.70;1.00
35607;DHT22;21729;58.392;15.656;2024-01-30T04:43:58;3.70;1.00
35607;DHT22;21729;58.392;15.656;2024-01-30T04:46:24;3.80;1.00
35607;DHT22;21729;58.392;15.656;2024-01-30T04:48:52;3.70;1.00
35607;DHT22;21729;58.392;15.656;2024-01-30T04:51:19;3.60;1.00
35607;DHT22;21729;58.392;15.656;2024-01-30T04:53:46;3.60;1.00
35607;DHT22;21729;58.392;15.656;2024-01-30T04:56:14;3.60;1.00
35607;DHT22;21729;58.392;15.656;2024-01-30T04:58:41;3.60;1.00
35607;DHT22;21729;58.392;15.656;2024-01-30T05:01:08;3.60;1.00
35607;DHT22;21729;58.392;15.656;2024-01-30T05:03:35;3.60;1.00
35607;DHT22;21729;58.392;15.656;2024-01-30T05:06:03;3.50;1.00
35607;DHT22;21729;58.392;15.656;2024-01-30T05:08:30;3.50;1.00
35607;DHT22;21729;58.392;15.656;2024-01-30T05:11:00;3.50;1.00
35607;DHT22;21729;58.392;15.656;2024-01-30T05:13:28;3.60;1.00
35607;DHT22;21729;58.392;15.656;2024-01-30T05:15:55;3.60;1.00
35607;DHT22;21729;58.392;15.656;2024-01-30T05:18:22;3.60;1.00
35607;DHT22;21729;58.392;15.656;2024-01-30T05:20:50;3.60;1.00
35607;DHT22;21729;58.392;15.656;2024-01-30T05:23:17;3.60;1.00
35607;DHT22;21729;58.392;15.656;2024-01-30T05:25:44;3.50;1.00
35607;DHT22;21729;58.392;15.656;2024-01-30T05:28:11;3.50;1.00
35607;DHT22;21729;58.392;15.656;2024-01-30T05:30:40;3.50;1.00
35607;DHT22;21729;58.392;15.656;2024-01-30T05:33:07;3.50;1.00
35607;DHT22;21729;58.392;15.656;2024-01-30T05:35:35;3.50;1.00
35607;DHT22;21729;58.392;15.656;2024-01-30T05:38:02;3.50;1.00
35607;DHT22;21729;58.392;15.656;2024-01-30T05:40:29;3.60;1.00
35607;DHT22;21729;58.392;15.656;2024-01-30T05:42:57;3.70;1.00
35607;DHT22;21729;58.392;15.656;2024-01-30T05:45:26;3.60;1.00
35607;DHT22;21729;58.392;15.656;2024-01-30T05:47:55;3.60;1.00
35607;DHT22;21729;58.392;15.656;2024-01-30T05:50:22;3.70;1.00
35607;DHT22;21729;58.392;15.656;2024-01-30T05:52:49;3.60;1.00
35607;DHT22;21729;58.392;15.656;2024-01-30T05:55:16;3.60;1.00
35607;DHT22;21729;58.392;15.656;2024-01-30T05:57:43;3.60;1.00
35607;DHT22;21729;58.392;15.656;2024-01-30T06:00:11;3.70;1.00
35607;DHT22;21729;58.392;15.656;2024-01-30T06:02:38;3.60;1.00
35607;DHT22;21729;58.392;15.656;2024-01-30T06:05:07;3.60;1.00
35607;DHT22;21729;58.392;15.656;2024-01-30T06:07:34;3.60;1.00
35607;DHT22;21729;58.392;15.656;2024-01-30T06:10:01;3.60;1.00
35607;DHT22;21729;58.392;15.656;2024-01-30T06:12:28;3.60;1.00
35607;DHT22;21729;58.392;15.656;2024-01-30T06:14:55;3.60;1.00
35607;DHT22;21729;58.392;15.656;2024-01-30T06:17:23;3.60;99.90
35607;DHT22;21729;58.392;15.656;2024-01-30T06:19:50;3.60;1.00
35607;DHT22;21729;58.392;15.656;2024-01-30T06:22:19;3.60;1.00
35607;DHT22;21729;58.392;15.656;2024-01-30T06:24:46;3.60;1.00
35607;DHT22;21729;58.392;15.656;2024-01-30T06:27:14;3.60;1.00
35607;DHT22;21729;58.392;15.656;2024-01-30T06:29:43;3.60;1.00
35607;DHT22;21729;58.392;15.656;2024-01-30T06:32:10;3.60;1.00
35607;DHT22;21729;58.392;15.656;2024-01-30T06:34:37;3.60;1.00
35607;DHT22;21729;58.392;15.656;2024-01-30T06:37:05;3.60;1.00
35607;DHT22;21729;58.392;15.656;2024-01-30T06:39:35;3.60;1.00
35607;DHT22;21729;58.392;15.656;2024-01-30T06:42:02;3.60;1.00
35607;DHT22;21729;58.392;15.656;2024-01-30T06:44:29;3.60;1.00
35607;DHT22;21729;58.392;15.656;2024-01-30T06:46:56;3.60;1.00
35607;DHT22;21729;58.392;15.656;2024-01-30T06:49:23;3.60;99.90
35607;DHT22;21729;58.392;15.656;2024-01-30T06:51:51;3.50;99.90
35607;DHT22;21729;58.392;15.656;2024-01-30T06:54:18;3.50;99.90
35607;DHT22;21729;58.392;15.656;2024-01-30T06:56:46;3.50;1.00
35607;DHT22;21729;58.392;15.656;2024-01-30T06:59:13;3.50;1.00
35607;DHT22;21729;58.392;15.656;2024-01-30T07:01:40;3.60;1.00
35607;DHT22;21729;58.392;15.656;2024-01-30T07:04:07;3.60;1.00
35607;DHT22;21729;58.392;15.656;2024-01-30T07:06:34;3.70;1.00
35607;DHT22;21729;58.392;15.656;2024-01-30T07:09:01;3.60;99.90
35607;DHT22;21729;58.392;15.656;2024-01-30T07:11:29;3.50;99.90
35607;DHT22;21729;58.392;15.656;2024-01-30T07:13:57;3.50;1.00
35607;DHT22;21729;58.392;15.656;2024-01-30T07:16:24;3.60;1.00
35607;DHT22;21729;58.392;15.656;2024-01-30T07:18:51;3.60;1.00
35607;DHT22;21729;58.392;15.656;2024-01-30T07:21:18;3.60;1.00
35607;DHT22;21729;58.392;15.656;2024-01-30T07:23:47;3.60;99.90
35607;DHT22;21729;58.392;15.656;2024-01-30T07:26:16;3.60;99.90
35607;DHT22;21729;58.392;15.656;2024-01-30T07:28:43;3.60;1.00
35607;DHT22;21729;58.392;15.656;2024-01-30T07:31:12;3.50;99.90
35607;DHT22;21729;58.392;15.656;2024-01-30T07:33:39;3.60;1.00
35607;DHT22;21729;58.392;15.656;2024-01-30T07:36:06;3.60;1.00
35607;DHT22;21729;58.392;15.656;2024-01-30T07:38:34;3.60;99.90
35607;DHT22;21729;58.392;15.656;2024-01-30T07:41:01;3.60;99.90
35607;DHT22;21729;58.392;15.656;2024-01-30T07:43:28;3.60;99.90
35607;DHT22;21729;58.392;15.656;2024-01-30T07:45:55;3.60;99.90
35607;DHT22;21729;58.392;15.656;2024-01-30T07:48:24;3.70;99.90
35607;DHT22;21729;58.392;15.656;2024-01-30T07:50:51;3.70;99.90
35607;DHT22;21729;58.392;15.656;2024-01-30T07:53:18;3.70;99.90
35607;DHT22;21729;58.392;15.656;2024-01-30T07:55:46;3.70;99.90
35607;DHT22;21729;58.392;15.656;2024-01-30T07:58:12;3.70;99.90
35607;DHT22;21729;58.392;15.656;2024-01-30T08:00:39;3.70;99.90
35607;DHT22;21729;58.392;15.656;2024-01-30T08:03:07;3.80;99.90
35607;DHT22;21729;58.392;15.656;2024-01-30T08:05:35;3.70;99.90
35607;DHT22;21729;58.392;15.656;2024-01-30T08:08:04;3.80;99.90
35607;DHT22;21729;58.392;15.656;2024-01-30T08:10:31;3.70;99.90
35607;DHT22;21729;58.392;15.656;2024-01-30T08:12:58;3.70;99.90
35607;DHT22;21729;58.392;15.656;2024-01-30T08:15:25;3.70;99.90
35607;DHT22;21729;58.392;15.656;2024-01-30T08:17:52;3.80;99.90
35607;DHT22;21729;58.392;15.656;2024-01-30T08:20:23;3.80;99.90
35607;DHT22;21729;58.392;15.656;2024-01-30T08:22:52;3.80;99.90
35607;DHT22;21729;58.392;15.656;2024-01-30T08:25:19;3.80;99.90
35607;DHT22;21729;58.392;15.656;2024-01-30T08:27:47;3.80;99.90
35607;DHT22;21729;58.392;15.656;2024-01-30T08:30:14;3.80;99.90
35607;DHT22;21729;58.392;15.656;2024-01-30T08:32:41;3.80;99.90
35607;DHT22;21729;58.392;15.656;2024-01-30T08:35:08;3.80;99.90
35607;DHT22;21729;58.392;15.656;2024-01-30T08:37:39;3.80;99.90
35607;DHT22;21729;58.392;15.656;2024-01-30T08:40:08;3.80;99.90
35607;DHT22;21729;58.392;15.656;2024-01-30T08:42:36;3.80;99.90
35607;DHT22;21729;58.392;15.656;2024-01-30T08:45:04;3.80;99.90
35607;DHT22;21729;58.392;15.656;2024-01-30T08:47:31;3.80;99.90
35607;DHT22;21729;58.392;15.656;2024-01-30T08:49:58;3.80;99.90
35607;DHT22;21729;58.392;15.656;2024-01-30T08:52:26;3.90;99.90
35607;DHT22;21729;58.392;15.656;2024-01-30T08:54:53;3.90;99.90
35607;DHT22;21729;58.392;15.656;2024-01-30T08:57:21;3.90;99.90
35607;DHT22;21729;58.392;15.656;2024-01-30T08:59:48;3.90;99.90
35607;DHT22;21729;58.392;15.656;2024-01-30T09:02:15;3.90;99.90
35607;DHT22;21729;58.392;15.656;2024-01-30T09:04:43;3.90;99.90
35607;DHT22;21729;58.392;15.656;2024-01-30T09:07:11;3.90;99.90
35607;DHT22;21729;58.392;15.656;2024-01-30T09:09:39;3.90;99.90
35607;DHT22;21729;58.392;15.656;2024-01-30T09:12:07;4.00;99.90
35607;DHT22;21729;58.392;15.656;2024-01-30T09:14:37;4.00;99.90
35607;DHT22;21729;58.392;15.656;2024-01-30T09:17:04;4.00;99.90
35607;DHT22;21729;58.392;15.656;2024-01-30T09:19:31;4.00;99.90
35607;DHT22;21729;58.392;15.656;2024-01-30T09:21:58;4.10;99.90
35607;DHT22;21729;58.392;15.656;2024-01-30T09:24:26;4.00;99.90
35607;DHT22;21729;58.392;15.656;2024-01-30T09:26:53;4.10;99.90
35607;DHT22;21729;58.392;15.656;2024-01-30T09:29:21;4.10;99.90
35607;DHT22;21729;58.392;15.656;2024-01-30T09:31:49;4.10;99.90
35607;DHT22;21729;58.392;15.656;2024-01-30T09:34:16;4.10;99.90
35607;DHT22;21729;58.392;15.656;2024-01-30T09:36:43;4.10;99.90
35607;DHT22;21729;58.392;15.656;2024-01-30T09:39:10;4.10;99.90
35607;DHT22;21729;58.392;15.656;2024-01-30T09:41:44;4.10;99.90
35607;DHT22;21729;58.392;15.656;2024-01-30T09:44:12;4.20;99.90
35607;DHT22;21729;58.392;15.656;2024-01-30T09:46:40;4.20;99.90
35607;DHT22;21729;58.392;15.656;2024-01-30T09:49:10;4.20;99.90
35607;DHT22;21729;58.392;15.656;2024-01-30T09:51:37;4.30;99.90
35607;DHT22;21729;58.392;15.656;2024-01-30T09:54:05;4.30;99.90
35607;DHT22;21729;58.392;15.656;2024-01-30T09:56:34;4.30;99.90
35607;DHT22;21729;58.392;15.656;2024-01-30T09:59:01;4.40;99.90
35607;DHT22;21729;58.392;15.656;2024-01-30T10:01:28;4.40;99.90
35607;DHT22;21729;58.392;15.656;2024-01-30T10:03:55;4.50;99.90
35607;DHT22;21729;58.392;15.656;2024-01-30T10:06:24;4.40;99.90
35607;DHT22;21729;58.392;15.656;2024-01-30T10:08:51;4.40;99.90
35607;DHT22;21729;58.392;15.656;2024-01-30T10:11:18;4.40;99.90
35607;DHT22;21729;58.392;15.656;2024-01-30T10:13:46;4.50;99.90
35607;DHT22;21729;58.392;15.656;2024-01-30T10:16:14;4.50;99.90
35607;DHT22;21729;58.392;15.656;2024-01-30T10:18:42;4.60;99.90
35607;DHT22;21729;58.392;15.656;2024-01-30T10:21:09;4.60;99.90
35607;DHT22;21729;58.392;15.656;2024-01-30T10:23:38;4.60;99.90
35607;DHT22;21729;58.392;15.656;2024-01-30T10:26:07;4.60;99.90
35607;DHT22;21729;58.392;15.656;2024-01-30T10:28:34;4.50;99.90
35607;DHT22;21729;58.392;15.656;2024-01-30T10:31:01;4.50;99.90
35607;DHT22;21729;58.392;15.656;2024-01-30T10:33:29;4.50;99.90
35607;DHT22;21729;58.392;15.656;2024-01-30T10:36:00;4.40;99.90
35607;DHT22;21729;58.392;15.656;2024-01-30T10:38:29;4.50;99.90
35607;DHT22;21729;58.392;15.656;2024-01-30T10:41:00;4.50;99.90
35607;DHT22;21729;58.392;15.656;2024-01-30T10:43:31;4.50;99.90
35607;DHT22;21729;58.392;15.656;2024-01-30T10:46:09;4.50;99.90
35607;DHT22;21729;58.392;15.656;2024-01-30T10:48:42;4.50;99.90
35607;DHT22;21729;58.392;15.656;2024-01-30T10:51:11;4.50;99.90
35607;DHT22;21729;58.392;15.656;2024-01-30T10:53:39;4.50;99.90
35607;DHT22;21729;58.392;15.656;2024-01-30T10:56:08;4.60;99.90
35607;DHT22;21729;58.392;15.656;2024-01-30T10:58:37;4.60;99.90
35607;DHT22;21729;58.392;15.656;2024-01-30T11:01:05;4.70;99.90
35607;DHT22;21729;58.392;15.656;2024-01-30T11:03:33;4.60;99.90
35607;DHT22;21729;58.392;15.656;2024-01-30T11:06:02;4.60;99.90
35607;DHT22;21729;58.392;15.656;2024-01-30T11:08:32;4.60;99.90
35607;DHT22;21729;58.392;15.656;2024-01-30T11:10:59;4.60;99.90
35607;DHT22;21729;58.392;15.656;2024-01-30T11:13:31;4.70;99.90
35607;DHT22;21729;58.392;15.656;2024-01-30T11:16:00;4.70;99.90
35607;DHT22;21729;58.392;15.656;2024-01-30T11:18:30;4.70;99.90
35607;DHT22;21729;58.392;15.656;2024-01-30T11:20:57;4.80;99.90
35607;DHT22;21729;58.392;15.656;2024-01-30T11:23:26;4.90;99.90
35607;DHT22;21729;58.392;15.656;2024-01-30T11:25:54;5.00;99.90
35607;DHT22;21729;58.392;15.656;2024-01-30T11:28:23;5.00;99.90
35607;DHT22;21729;58.392;15.656;2024-01-30T11:30:52;5.10;99.90
35607;DHT22;21729;58.392;15.656;2024-01-30T11:33:29;5.00;99.90
35607;DHT22;21729;58.392;15.656;2024-01-30T11:35:58;5.10;99.90
35607;DHT22;21729;58.392;15.656;2024-01-30T11:38:26;5.10;99.90
35607;DHT22;21729;58.392;15.656;2024-01-30T11:40:54;5.10;99.90
35607;DHT22;21729;58.392;15.656;2024-01-30T11:43:22;5.00;99.90
35607;DHT22;21729;58.392;15.656;2024-01-30T11:45:50;5.00;99.90
35607;DHT22;21729;58.392;15.656;2024-01-30T11:48:18;5.00;99.90
35607;DHT22;21729;58.392;15.656;2024-01-30T11:50:46;5.10;99.90
35607;DHT22;21729;58.392;15.656;2024-01-30T11:53:13;5.10;99.90
35607;DHT22;21729;58.392;15.656;2024-01-30T11:55:41;5.10;99.90
35607;DHT22;21729;58.392;15.656;2024-01-30T11:58:08;5.20;99.90
35607;DHT22;21729;58.392;15.656;2024-01-30T12:00:35;5.10;99.90
35607;DHT22;21729;58.392;15.656;2024-01-30T12:03:03;5.20;99.90
35607;DHT22;21729;58.392;15.656;2024-01-30T12:05:34;5.20;99.90
35607;DHT22;21729;58.392;15.656;2024-01-30T12:08:02;5.20;99.90
35607;DHT22;21729;58.392;15.656;2024-01-30T12:10:29;5.20;99.90
35607;DHT22;21729;58.392;15.656;2024-01-30T12:12:56;5.10;99.90
35607;DHT22;21729;58.392;15.656;2024-01-30T12:15:24;5.10;99.90
35607;DHT22;21729;58.392;15.656;2024-01-30T12:17:51;5.10;99.90
35607;DHT22;21729;58.392;15.656;2024-01-30T12:20:19;5.10;99.90
35607;DHT22;21729;58.392;15.656;2024-01-30T12:22:49;5.10;99.90
35607;DHT22;21729;58.392;15.656;2024-01-30T12:25:18;5.10;99.90
35607;DHT22;21729;58.392;15.656;2024-01-30T12:27:46;5.10;99.90
35607;DHT22;21729;58.392;15.656;2024-01-30T12:30:16;5.10;99.90
35607;DHT22;21729;58.392;15.656;2024-01-30T12:32:44;5.00;99.90
35607;DHT22;21729;58.392;15.656;2024-01-30T12:35:12;5.00;99.90
35607;DHT22;21729;58.392;15.656;2024-01-30T12:37:39;5.00;99.90
35607;DHT22;21729;58.392;15.656;2024-01-30T12:40:09;5.00;99.90
35607;DHT22;21729;58.392;15.656;2024-01-30T12:42:37;5.00;99.90
35607;DHT22;21729;58.392;15.656;2024-01-30T12:45:05;5.00;99.90
35607;DHT22;21729;58.392;15.656;2024-01-30T12:47:32;5.00;99.90
35607;DHT22;21729;58.392;15.656;2024-01-30T12:49:59;5.00;99.90
35607;DHT22;21729;58.392;15.656;2024-01-30T12:52:26;5.00;99.90
35607;DHT22;21729;58.392;15.656;2024-01-30T12:54:53;4.90;99.90
35607;DHT22;21729;58.392;15.656;2024-01-30T12:57:22;5.00;99.90
35607;DHT22;21729;58.392;15.656;2024-01-30T12:59:49;5.00;99.90
35607;DHT22;21729;58.392;15.656;2024-01-30T13:02:16;4.80;99.90
35607;DHT22;21729;58.392;15.656;2024-01-30T13:04:44;4.70;99.90
35607;DHT22;21729;58.392;15.656;2024-01-30T13:07:11;4.80;99.90
35607;DHT22;21729;58.392;15.656;2024-01-30T13:09:38;4.80;99.90
35607;DHT22;21729;58.392;15.656;2024-01-30T13:12:06;4.80;99.90
35607;DHT22;21729;58.392;15.656;2024-01-30T13:14:35;4.70;99.90
35607;DHT22;21729;58.392;15.656;2024-01-30T13:17:02;4.70;99.90
35607;DHT22;21729;58.392;15.656;2024-01-30T13:19:29;4.70;99.90
35607;DHT22;21729;58.392;15.656;2024-01-30T13:21:56;4.60;99.90
35607;DHT22;21729;58.392;15.656;2024-01-30T13:24:23;4.70;99.90
35607;DHT22;21729;58.392;15.656;2024-01-30T13:26:50;4.70;99.90
35607;DHT22;21729;58.392;15.656;2024-01-30T13:29:18;4.70;99.90
35607;DHT22;21729;58.392;15.656;2024-01-30T13:31:47;4.70;99.90
35607;DHT22;21729;58.392;15.656;2024-01-30T13:34:14;4.80;1.40
35607;DHT22;21729;58.392;15.656;2024-01-30T13:36:41;4.70;99.90
35607;DHT22;21729;58.392;15.656;2024-01-30T13:39:08;4.80;99.90
35607;DHT22;21729;58.392;15.656;2024-01-30T13:41:36;4.70;99.90
35607;DHT22;21729;58.392;15.656;2024-01-30T13:44:04;4.70;99.90
35607;DHT22;21729;58.392;15.656;2024-01-30T13:46:31;4.70;99.90
35607;DHT22;21729;58.392;15.656;2024-01-30T13:48:59;4.70;1.00
35607;DHT22;21729;58.392;15.656;2024-01-30T13:51:26;4.70;1.00
35607;DHT22;21729;58.392;15.656;2024-01-30T13:53:54;4.70;99.90
35607;DHT22;21729;58.392;15.656;2024-01-30T13:56:21;4.70;99.90
35607;DHT22;21729;58.392;15.656;2024-01-30T13:58:48;4.70;99.90
35607;DHT22;21729;58.392;15.656;2024-01-30T14:01:15;4.70;99.90
35607;DHT22;21729;58.392;15.656;2024-01-30T14:03:42;4.70;1.00
35607;DHT22;21729;58.392;15.656;2024-01-30T14:06:11;4.70;99.90
35607;DHT22;21729;58.392;15.656;2024-01-30T14:08:38;4.70;99.90
35607;DHT22;21729;58.392;15.656;2024-01-30T14:11:05;4.60;99.90
35607;DHT22;21729;58.392;15.656;2024-01-30T14:13:32;4.60;99.90
35607;DHT22;21729;58.392;15.656;2024-01-30T14:16:00;4.60;1.00
35607;DHT22;21729;58.392;15.656;2024-01-30T14:18:27;4.60;1.00
35607;DHT22;21729;58.392;15.656;2024-01-30T14:20:54;4.60;1.00
35607;DHT22;21729;58.392;15.656;2024-01-30T14:23:24;4.60;1.00
35607;DHT22;21729;58.392;15.656;2024-01-30T14:25:51;4.60;1.00
35607;DHT22;21729;58.392;15.656;2024-01-30T14:28:18;4.60;1.00
35607;DHT22;21729;58.392;15.656;2024-01-30T14:30:45;4.60;1.00
35607;DHT22;21729;58.392;15.656;2024-01-30T14:33:12;4.60;1.00
35607;DHT22;21729;58.392;15.656;2024-01-30T14:35:39;4.60;1.00
35607;DHT22;21729;58.392;15.656;2024-01-30T14:38:06;4.60;1.00
35607;DHT22;21729;58.392;15.656;2024-01-30T14:40:37;4.50;1.00
35607;DHT22;21729;58.392;15.656;2024-01-30T14:43:04;4.50;1.00
35607;DHT22;21729;58.392;15.656;2024-01-30T14:45:31;4.50;1.00
35607;DHT22;21729;58.392;15.656;2024-01-30T14:47:58;4.50;1.00
35607;DHT22;21729;58.392;15.656;2024-01-30T14:50:26;4.50;1.00
35607;DHT22;21729;58.392;15.656;2024-01-30T14:52:54;4.50;1.00
35607;DHT22;21729;58.392;15.656;2024-01-30T14:55:21;4.50;1.00
35607;DHT22;21729;58.392;15.656;2024-01-30T14:57:49;4.50;1.00
35607;DHT22;21729;58.392;15.656;2024-01-30T15:00:17;4.50;1.00
35607;DHT22;21729;58.392;15.656;2024-01-30T15:02:44;4.50;1.00
35607;DHT22;21729;58.392;15.656;2024-01-30T15:05:13;4.40;1.00
35607;DHT22;21729;58.392;15.656;2024-01-30T15:07:40;4.40;1.00
35607;DHT22;21729;58.392;15.656;2024-01-30T15:10:08;4.40;1.00
35607;DHT22;21729;58.392;15.656;2024-01-30T15:12:35;4.40;1.00
35607;DHT22;21729;58.392;15.656;2024-01-30T15:15:06;4.40;1.00
35607;DHT22;21729;58.392;15.656;2024-01-30T15:17:33;4.50;1.00
35607;DHT22;21729;58.392;15.656;2024-01-30T15:20:00;4.40;1.00
35607;DHT22;21729;58.392;15.656;2024-01-30T15:22:29;4.40;1.00
35607;DHT22;21729;58.392;15.656;2024-01-30T15:24:56;4.40;1.00
35607;DHT22;21729;58.392;15.656;2024-01-30T15:27:23;4.60;1.00
35607;DHT22;21729;58.392;15.656;2024-01-30T15:29:50;4.40;1.00
35607;DHT22;21729;58.392;15.656;2024-01-30T15:32:19;4.40;1.00
35607;DHT22;21729;58.392;15.656;2024-01-30T15:34:46;4.40;1.00
35607;DHT22;21729;58.392;15.656;2024-01-30T15:37:13;4.40;1.00
35607;DHT22;21729;58.392;15.656;2024-01-30T15:39:40;4.40;1.00